Time,TemperatureF,DewpointF,PressureIn,WindDirection,WindDirectionDegrees,WindSpeedMPH,WindSpeedGustMPH,Humidity,HourlyPrecipIn,Conditions,Clouds,dailyrainin,SoftwareType,DateUTC
2013-02-15 00:00:00,28.9,23.8,29.93,ESE,106,1.3,2.5,81,0.00,n/a,n/a,-99.99,Henriksen +1-Wire,2013-02-15 05:00:00,
2013-02-15 00:02:00,28.8,23.6,29.93,ESE,107,1.2,2.5,80,0.00,n/a,n/a,-99.99,Henriksen +1-Wire,2013-02-15 05:02:00,
2013-02-15 00:04:00,28.7,23.3,29.93,East,101,1.2,1.7,79,0.00,n/a,n/a,-99.99,Henriksen +1-Wire,2013-02-15 05:04:00,
2013-02-15 00:10:00,28.7,23.4,29.93,East,94,1.0,1.6,80,0.00,n/a,n/a,-99.99,Henriksen +1-Wire,2013-02-15 05:10:00,
2013-02-15 00:14:00,29.1,23.7,29.93,ESE,123,0.5,1.6,80,0.00,n/a,n/a,-99.99,Henriksen +1-Wire,2013-02-15 05:14:00,
2013-02-15 00:20:00,29.2,24.2,29.93,SE,141,0.4,1.6,81,0.00,n/a,n/a,-99.99,Henriksen +1-Wire,2013-02-15 05:20:00,
2013-02-15 00:26:00,29.2,24.5,29.93,SSE,155,0.0,1.3,82,0.00,n/a,n/a,-99.99,Henriksen +1-Wire,2013-02-15 05:26:00,
2013-02-15 00:32:00,28.3,23.8,29.93,SSE,151,0.0,0.3,83,0.00,n/a,n/a,-99.99,Henriksen +1-Wire,2013-02-15 05:32:00,
2013-02-15 00:38:00,27.0,22.9,29.93,SE,140,0.0,0.0,84,0.00,n/a,n/a,-99.99,Henriksen +1-Wire,2013-02-15 05:38:00,
2013-02-15 00:44:00,27.0,22.8,29.93,ESE,107,0.1,1.0,84,0.00,n/a,n/a,-99.99,Henriksen +1-Wire,2013-02-15 05:44:00,
2013-02-15 00:50:00,27.0,22.9,29.93,NNW,334,0.0,1.0,84,0.00,n/a,n/a,-99.99,Henriksen +1-Wire,2013-02-15 05:50:00,
2013-02-15 00:56:00,27.1,23.0,29.93,North,2,0.0,0.0,84,0.00,n/a,n/a,-99.99,Henriksen +1-Wire,2013-02-15 05:56:00,
2013-02-15 01:02:00,27.6,23.7,29.93,North,6,0.0,0.0,85,0.00,n/a,n/a,-99.99,Henriksen +1-Wire,2013-02-15 06:02:00,
2013-02-15 01:08:00,27.3,23.5,29.93,North,1,0.0,0.0,85,0.00,n/a,n/a,-99.99,Henriksen +1-Wire,2013-02-15 06:08:00,
2013-02-15 01:14:00,27.3,23.5,29.93,North,3,0.0,0.0,85,0.00,n/a,n/a,-99.99,Henriksen +1-Wire,2013-02-15 06:14:00,
2013-02-15 01:20:00,26.9,23.2,29.93,North,1,0.0,0.0,85,0.00,n/a,n/a,-99.99,Henriksen +1-Wire,2013-02-15 06:20:00,
2013-02-15 01:26:00,25.5,22.2,29.93,North,2,0.1,1.7,87,0.00,n/a,n/a,-99.99,Henriksen +1-Wire,2013-02-15 06:26:00,
2013-02-15 01:32:00,25.0,21.7,29.93,North,6,0.0,1.3,86,0.00,n/a,n/a,-99.99,Henriksen +1-Wire,2013-02-15 06:32:00,
2013-02-15 01:38:00,24.9,21.5,29.93,North,1,0.0,0.0,86,0.00,n/a,n/a,-99.99,Henriksen +1-Wire,2013-02-15 06:38:00,
2013-02-15 01:44:00,24.7,21.3,29.93,North,3,0.0,0.0,86,0.00,n/a,n/a,-99.99,Henriksen +1-Wire,2013-02-15 06:44:00,
2013-02-15 01:50:00,24.6,21.3,29.93,North,1,0.2,1.3,87,0.00,n/a,n/a,-99.99,Henriksen +1-Wire,2013-02-15 06:50:00,
2013-02-15 01:56:00,24.6,21.3,29.93,North,2,0.0,1.3,87,0.00,n/a,n/a,-99.99,Henriksen +1-Wire,2013-02-15 06:56:00,
2013-02-15 02:02:00,25.5,22.2,29.93,North,6,0.0,1.0,87,0.00,n/a,n/a,-99.99,Henriksen +1-Wire,2013-02-15 07:02:00,
2013-02-15 02:08:00,25.8,22.5,29.93,North,1,0.0,1.0,86,0.00,n/a,n/a,-99.99,Henriksen +1-Wire,2013-02-15 07:08:00,
2013-02-15 02:14:00,25.8,22.4,29.93,North,3,0.0,0.0,86,0.00,n/a,n/a,-99.99,Henriksen +1-Wire,2013-02-15 07:14:00,
2013-02-15 02:20:00,25.6,22.3,29.93,North,1,0.0,0.0,86,0.00,n/a,n/a,-99.99,Henriksen +1-Wire,2013-02-15 07:20:00,
2013-02-15 02:26:00,25.6,22.3,29.93,North,2,0.0,0.0,87,0.00,n/a,n/a,-99.99,Henriksen +1-Wire,2013-02-15 07:26:00,
2013-02-15 02:32:00,25.7,22.5,29.93,North,6,0.0,0.0,87,0.00,n/a,n/a,-99.99,Henriksen +1-Wire,2013-02-15 07:32:00,
2013-02-15 02:38:00,25.6,22.3,29.93,North,1,0.0,0.0,87,0.00,n/a,n/a,-99.99,Henriksen +1-Wire,2013-02-15 07:38:00,
2013-02-15 02:44:00,25.7,22.6,29.93,North,3,0.0,0.0,87,0.00,n/a,n/a,-99.99,Henriksen +1-Wire,2013-02-15 07:44:00,
2013-02-15 02:50:00,24.5,21.4,29.93,North,1,0.0,0.0,87,0.00,n/a,n/a,-99.99,Henriksen +1-Wire,2013-02-15 07:50:00,
2013-02-15 02:56:00,25.1,22.0,29.93,North,2,0.0,0.0,87,0.00,n/a,n/a,-99.99,Henriksen +1-Wire,2013-02-15 07:56:00,
2013-02-15 03:02:00,25.5,22.4,29.93,North,6,0.0,0.0,87,0.00,n/a,n/a,-99.99,Henriksen +1-Wire,2013-02-15 08:02:00,
2013-02-15 03:08:00,25.4,22.2,29.93,North,1,0.0,0.0,87,0.00,n/a,n/a,-99.99,Henriksen +1-Wire,2013-02-15 08:08:00,
2013-02-15 03:14:00,24.0,20.8,29.93,North,3,0.0,0.0,87,0.00,n/a,n/a,-99.99,Henriksen +1-Wire,2013-02-15 08:14:00,
2013-02-15 03:20:00,23.8,20.6,29.93,North,1,0.0,0.0,87,0.00,n/a,n/a,-99.99,Henriksen +1-Wire,2013-02-15 08:20:00,
2013-02-15 03:26:00,23.7,20.6,29.93,North,2,0.0,0.0,87,0.00,n/a,n/a,-99.99,Henriksen +1-Wire,2013-02-15 08:26:00,
2013-02-15 03:32:00,23.2,20.1,29.93,North,6,0.0,0.0,87,0.00,n/a,n/a,-99.99,Henriksen +1-Wire,2013-02-15 08:32:00,
2013-02-15 03:38:00,23.0,20.0,29.93,North,1,0.0,0.0,88,0.00,n/a,n/a,-99.99,Henriksen +1-Wire,2013-02-15 08:38:00,
2013-02-15 03:44:00,23.0,20.0,29.93,North,3,0.0,0.0,88,0.00,n/a,n/a,-99.99,Henriksen +1-Wire,2013-02-15 08:44:00,
2013-02-15 03:50:00,22.9,19.9,29.93,NNE,12,0.0,0.0,88,0.00,n/a,n/a,-99.99,Henriksen +1-Wire,2013-02-15 08:50:00,
2013-02-15 03:56:00,23.1,20.1,29.93,NNE,23,0.0,1.6,88,0.00,n/a,n/a,-99.99,Henriksen +1-Wire,2013-02-15 08:56:00,
2013-02-15 04:02:00,23.1,20.1,29.93,NNE,25,0.0,1.0,88,0.00,n/a,n/a,-99.99,Henriksen +1-Wire,2013-02-15 09:02:00,
2013-02-15 04:08:00,23.0,20.0,29.93,NNE,23,0.0,0.0,88,0.00,n/a,n/a,-99.99,Henriksen +1-Wire,2013-02-15 09:08:00,
2013-02-15 04:14:00,22.9,20.0,29.92,NNE,24,0.0,0.0,88,0.00,n/a,n/a,-99.99,Henriksen +1-Wire,2013-02-15 09:14:00,
2013-02-15 04:20:00,23.4,20.5,29.93,NNE,23,0.0,0.0,88,0.00,n/a,n/a,-99.99,Henriksen +1-Wire,2013-02-15 09:20:00,
2013-02-15 04:26:00,23.5,20.6,29.92,NNE,23,0.0,0.0,88,0.00,n/a,n/a,-99.99,Henriksen +1-Wire,2013-02-15 09:26:00,
2013-02-15 04:32:00,23.0,20.1,29.93,NNE,25,0.0,0.0,88,0.00,n/a,n/a,-99.99,Henriksen +1-Wire,2013-02-15 09:32:00,
2013-02-15 04:38:00,23.0,20.2,29.93,NNE,23,0.0,0.0,88,0.00,n/a,n/a,-99.99,Henriksen +1-Wire,2013-02-15 09:38:00,
2013-02-15 04:44:00,23.0,20.2,29.93,NNE,24,0.0,0.0,89,0.00,n/a,n/a,-99.99,Henriksen +1-Wire,2013-02-15 09:44:00,
2013-02-15 04:50:00,23.7,20.9,29.93,NNE,23,0.0,0.0,89,0.00,n/a,n/a,-99.99,Henriksen +1-Wire,2013-02-15 09:50:00,
2013-02-15 04:56:00,23.3,20.6,29.93,NNE,23,0.0,0.0,89,0.00,n/a,n/a,-99.99,Henriksen +1-Wire,2013-02-15 09:56:00,
2013-02-15 05:02:00,23.6,20.9,29.93,NNE,25,0.0,0.0,89,0.00,n/a,n/a,-99.99,Henriksen +1-Wire,2013-02-15 10:02:00,
2013-02-15 05:08:00,23.4,20.7,29.93,NNE,23,0.4,1.0,89,0.00,n/a,n/a,-99.99,Henriksen +1-Wire,2013-02-15 10:08:00,
2013-02-15 05:14:00,25.0,22.2,29.93,NNE,24,0.4,1.3,88,0.00,n/a,n/a,-99.99,Henriksen +1-Wire,2013-02-15 10:14:00,
2013-02-15 05:20:00,25.4,22.6,29.93,NE,50,1.2,2.0,88,0.00,n/a,n/a,-99.99,Henriksen +1-Wire,2013-02-15 10:20:00,
2013-02-15 05:26:00,25.3,22.2,29.93,ENE,67,0.0,1.9,87,0.00,n/a,n/a,-99.99,Henriksen +1-Wire,2013-02-15 10:26:00,
2013-02-15 05:32:00,25.7,22.5,29.93,ESE,104,0.0,0.0,87,0.00,n/a,n/a,-99.99,Henriksen +1-Wire,2013-02-15 10:32:00,
2013-02-15 05:38:00,26.7,23.8,29.93,ESE,107,0.8,2.2,88,0.00,n/a,n/a,-99.99,Henriksen +1-Wire,2013-02-15 10:38:00,
2013-02-15 05:44:00,27.0,24.1,29.93,ESE,109,0.1,2.2,88,0.00,n/a,n/a,-99.99,Henriksen +1-Wire,2013-02-15 10:44:00,
2013-02-15 05:50:00,28.8,25.9,29.93,East,86,0.0,2.2,88,0.00,n/a,n/a,-99.99,Henriksen +1-Wire,2013-02-15 10:50:00,
2013-02-15 05:56:00,28.5,25.6,29.93,ESE,105,0.0,1.3,88,0.00,n/a,n/a,-99.99,Henriksen +1-Wire,2013-02-15 10:56:00,
2013-02-15 06:02:00,28.4,25.4,29.93,ESE,118,0.0,1.3,88,0.00,n/a,n/a,-99.99,Henriksen +1-Wire,2013-02-15 11:02:00,
2013-02-15 06:08:00,28.4,25.4,29.93,ESE,117,0.1,1.6,88,0.00,n/a,n/a,-99.99,Henriksen +1-Wire,2013-02-15 11:08:00,
2013-02-15 06:14:00,28.5,25.5,29.93,SE,129,1.5,3.5,88,0.00,n/a,n/a,-99.99,Henriksen +1-Wire,2013-02-15 11:14:00,
2013-02-15 06:20:00,29.6,26.8,29.93,SE,132,0.3,3.5,89,0.00,n/a,n/a,-99.99,Henriksen +1-Wire,2013-02-15 11:20:00,
2013-02-15 06:26:00,29.8,27.0,29.93,SSE,165,1.9,3.4,89,0.00,n/a,n/a,-99.99,Henriksen +1-Wire,2013-02-15 11:26:00,
2013-02-15 06:32:00,30.8,28.0,29.93,ESE,117,1.4,3.4,89,0.00,n/a,n/a,-99.99,Henriksen +1-Wire,2013-02-15 11:32:00,
2013-02-15 06:38:00,31.0,28.2,29.93,SE,131,1.4,3.5,89,0.00,n/a,n/a,-99.99,Henriksen +1-Wire,2013-02-15 11:38:00,
2013-02-15 06:44:00,31.0,28.3,29.93,SSE,152,2.0,3.8,89,0.00,n/a,n/a,-99.99,Henriksen +1-Wire,2013-02-15 11:44:00,
2013-02-15 06:50:00,31.0,28.4,29.93,SE,145,1.8,3.8,89,0.00,n/a,n/a,-99.99,Henriksen +1-Wire,2013-02-15 11:50:00,
2013-02-15 06:56:00,31.1,28.6,29.94,SE,126,1.8,3.8,90,0.00,n/a,n/a,-99.99,Henriksen +1-Wire,2013-02-15 11:56:00,
2013-02-15 07:02:00,31.1,28.6,29.93,ESE,106,1.5,3.3,90,0.00,n/a,n/a,-99.99,Henriksen +1-Wire,2013-02-15 12:02:00,
2013-02-15 07:08:00,31.1,28.7,29.94,SE,127,1.5,3.3,90,0.00,n/a,n/a,-99.99,Henriksen +1-Wire,2013-02-15 12:08:00,
2013-02-15 07:14:00,31.3,28.9,29.93,SSE,149,2.3,3.8,90,0.00,n/a,n/a,-99.99,Henriksen +1-Wire,2013-02-15 12:14:00,
2013-02-15 07:20:00,31.3,29.0,29.93,ESE,118,1.7,3.8,90,0.00,n/a,n/a,-99.99,Henriksen +1-Wire,2013-02-15 12:20:00,
2013-02-15 07:26:00,31.1,28.7,29.93,ESE,123,1.7,3.2,91,0.00,n/a,n/a,-99.99,Henriksen +1-Wire,2013-02-15 12:26:00,
2013-02-15 07:32:00,31.3,29.0,29.93,ESE,109,2.0,2.6,91,0.00,n/a,n/a,-99.99,Henriksen +1-Wire,2013-02-15 12:32:00,
2013-02-15 07:38:00,31.4,29.1,29.93,ESE,113,1.5,3.2,91,0.00,n/a,n/a,-99.99,Henriksen +1-Wire,2013-02-15 12:38:00,
2013-02-15 07:44:00,31.0,28.8,29.93,ESE,106,1.4,2.6,91,0.00,n/a,n/a,-99.99,Henriksen +1-Wire,2013-02-15 12:44:00,
2013-02-15 07:50:00,30.3,28.1,29.93,ESE,110,2.1,2.9,91,0.00,n/a,n/a,-99.99,Henriksen +1-Wire,2013-02-15 12:50:00,
2013-02-15 07:56:00,31.7,29.4,29.93,ESE,119,2.0,4.5,91,0.00,n/a,n/a,-99.99,Henriksen +1-Wire,2013-02-15 12:56:00,
2013-02-15 08:02:00,32.5,30.1,29.93,ESE,122,2.0,5.3,90,0.00,n/a,n/a,-99.99,Henriksen +1-Wire,2013-02-15 13:02:00,
2013-02-15 08:08:00,33.0,30.5,29.93,ESE,116,2.9,4.5,90,0.00,n/a,n/a,-99.99,Henriksen +1-Wire,2013-02-15 13:08:00,
2013-02-15 08:14:00,32.4,29.7,29.93,SE,126,2.8,4.7,89,0.00,n/a,n/a,-99.99,Henriksen +1-Wire,2013-02-15 13:14:00,
2013-02-15 08:20:00,32.4,29.5,29.93,SE,128,3.5,6.1,88,0.00,n/a,n/a,-99.99,Henriksen +1-Wire,2013-02-15 13:20:00,
2013-02-15 08:26:00,32.9,29.6,29.93,ESE,118,4.3,6.1,87,0.00,n/a,n/a,-99.99,Henriksen +1-Wire,2013-02-15 13:26:00,
2013-02-15 08:32:00,33.6,29.8,29.93,ESE,116,3.2,6.1,85,0.00,n/a,n/a,-99.99,Henriksen +1-Wire,2013-02-15 13:32:00,
2013-02-15 08:38:00,33.9,29.8,29.93,SE,129,4.3,6.2,84,0.00,n/a,n/a,-99.99,Henriksen +1-Wire,2013-02-15 13:38:00,
2013-02-15 08:44:00,34.5,30.1,29.93,ESE,112,3.7,7.9,83,0.00,n/a,n/a,-99.99,Henriksen +1-Wire,2013-02-15 13:44:00,
2013-02-15 08:50:00,35.5,30.3,29.93,ESE,115,3.6,6.2,81,0.00,n/a,n/a,-99.99,Henriksen +1-Wire,2013-02-15 13:50:00,
2013-02-15 08:56:00,35.8,30.1,29.93,South,169,5.4,9.9,79,0.00,n/a,n/a,-99.99,Henriksen +1-Wire,2013-02-15 13:56:00,
2013-02-15 09:02:00,36.6,30.0,29.93,SSE,150,3.6,9.9,76,0.00,n/a,n/a,-99.99,Henriksen +1-Wire,2013-02-15 14:02:00,
2013-02-15 09:08:00,37.2,30.0,29.93,SSE,151,4.4,9.3,74,0.00,n/a,n/a,-99.99,Henriksen +1-Wire,2013-02-15 14:08:00,
2013-02-15 09:14:00,37.3,29.8,29.93,SSE,168,4.7,9.5,74,0.00,n/a,n/a,-99.99,Henriksen +1-Wire,2013-02-15 14:14:00,
2013-02-15 09:20:00,37.6,29.8,29.93,SSE,167,4.9,9.6,73,0.00,n/a,n/a,-99.99,Henriksen +1-Wire,2013-02-15 14:20:00,
2013-02-15 09:26:00,38.4,29.6,29.93,SSE,165,5.3,9.3,70,0.00,n/a,n/a,-99.99,Henriksen +1-Wire,2013-02-15 14:26:00,
2013-02-15 09:32:00,39.2,29.3,29.93,SSE,157,7.1,13.6,67,0.00,n/a,n/a,-99.99,Henriksen +1-Wire,2013-02-15 14:32:00,
2013-02-15 09:38:00,39.3,29.3,29.93,SSE,161,6.4,13.6,67,0.00,n/a,n/a,-99.99,Henriksen +1-Wire,2013-02-15 14:38:00,
2013-02-15 09:44:00,39.5,29.5,29.93,SSE,162,6.0,10.5,67,0.00,n/a,n/a,-99.99,Henriksen +1-Wire,2013-02-15 14:44:00,
2013-02-15 09:50:00,39.9,29.7,29.93,SSE,160,4.7,9.9,66,0.00,n/a,n/a,-99.99,Henriksen +1-Wire,2013-02-15 14:50:00,
2013-02-15 09:56:00,39.9,28.2,29.93,South,180,6.0,12.3,62,0.00,n/a,n/a,-99.99,Henriksen +1-Wire,2013-02-15 14:56:00,
2013-02-15 10:02:00,40.4,29.6,29.93,SE,142,7.0,12.6,64,0.00,n/a,n/a,-99.99,Henriksen +1-Wire,2013-02-15 15:02:00,
2013-02-15 10:08:00,40.7,17.6,29.93,SSE,159,5.4,12.6,39,0.00,n/a,n/a,-99.99,Henriksen +1-Wire,2013-02-15 15:08:00,
2013-02-15 10:14:00,41.1,28.6,29.93,South,183,4.2,9.1,60,0.00,n/a,n/a,-99.99,Henriksen +1-Wire,2013-02-15 15:14:00,
2013-02-15 21:12:00,36.7,33.0,29.90,WNW,302,0.4,0.0,86,0.00,n/a,n/a,-99.99,Henriksen +1-Wire,2013-02-16 02:12:00,
2013-02-15 21:18:00,34.2,30.6,29.90,ENE,68,0.9,1.9,86,0.00,n/a,n/a,-99.99,Henriksen +1-Wire,2013-02-16 02:18:00,
2013-02-15 21:24:00,33.0,29.3,29.90,ENE,66,0.0,1.9,86,0.00,n/a,n/a,-99.99,Henriksen +1-Wire,2013-02-16 02:24:00,
2013-02-15 21:30:00,32.5,28.9,29.90,WSW,257,0.0,1.0,86,0.00,n/a,n/a,-99.99,Henriksen +1-Wire,2013-02-16 02:30:00,
2013-02-15 21:36:00,32.2,28.9,29.90,SSW,200,0.1,0.7,87,0.00,n/a,n/a,-99.99,Henriksen +1-Wire,2013-02-16 02:36:00,
2013-02-15 21:42:00,32.2,28.9,29.90,SSE,162,0.0,0.7,87,0.00,n/a,n/a,-99.99,Henriksen +1-Wire,2013-02-16 02:42:00,
2013-02-15 21:48:00,32.4,29.2,29.90,NNW,345,0.0,0.0,87,0.00,n/a,n/a,-99.99,Henriksen +1-Wire,2013-02-16 02:48:00,
2013-02-15 21:54:00,32.3,29.1,29.90,SE,128,0.0,0.0,88,0.00,n/a,n/a,-99.99,Henriksen +1-Wire,2013-02-16 02:54:00,
2013-02-15 22:00:00,32.9,29.8,29.90,South,184,0.0,0.0,88,0.00,n/a,n/a,-99.99,Henriksen +1-Wire,2013-02-16 03:00:00,
2013-02-15 22:06:00,32.6,29.6,29.90,SSE,157,0.0,0.0,88,0.00,n/a,n/a,-99.99,Henriksen +1-Wire,2013-02-16 03:06:00,
2013-02-15 22:12:00,32.7,29.7,29.90,North,350,0.4,1.6,88,0.00,n/a,n/a,-99.99,Henriksen +1-Wire,2013-02-16 03:12:00,
2013-02-15 22:18:00,31.0,28.1,29.90,North,353,0.0,1.6,88,0.00,n/a,n/a,-99.99,Henriksen +1-Wire,2013-02-16 03:18:00,
2013-02-15 22:24:00,30.4,27.5,29.90,WSW,240,0.0,0.0,88,0.00,n/a,n/a,-99.99,Henriksen +1-Wire,2013-02-16 03:24:00,
2013-02-15 22:30:00,30.4,27.6,29.89,North,8,0.0,0.0,89,0.00,n/a,n/a,-99.99,Henriksen +1-Wire,2013-02-16 03:30:00,
2013-02-15 22:36:00,30.3,27.7,29.89,ESE,102,0.0,0.0,89,0.00,n/a,n/a,-99.99,Henriksen +1-Wire,2013-02-16 03:36:00,
2013-02-15 22:42:00,30.6,28.0,29.90,West,260,0.0,0.0,89,0.00,n/a,n/a,-99.99,Henriksen +1-Wire,2013-02-16 03:42:00,
2013-02-15 22:48:00,31.2,28.6,29.90,SW,234,0.0,0.0,90,0.00,n/a,n/a,-99.99,Henriksen +1-Wire,2013-02-16 03:48:00,
2013-02-15 22:54:00,30.9,28.5,29.90,SE,138,0.0,0.0,90,0.00,n/a,n/a,-99.99,Henriksen +1-Wire,2013-02-16 03:54:00,
2013-02-15 23:00:00,30.6,28.2,29.90,ESE,104,0.0,0.0,90,0.00,n/a,n/a,-99.99,Henriksen +1-Wire,2013-02-16 04:00:00,
2013-02-15 23:06:00,29.5,27.1,29.90,NNW,328,0.0,0.0,90,0.00,n/a,n/a,-99.99,Henriksen +1-Wire,2013-02-16 04:06:00,
2013-02-15 23:12:00,30.6,28.1,29.90,WNW,294,0.0,0.0,90,0.00,n/a,n/a,-99.99,Henriksen +1-Wire,2013-02-16 04:12:00,
2013-02-15 23:18:00,29.7,27.3,29.90,NW,309,0.0,0.0,90,0.00,n/a,n/a,-99.99,Henriksen +1-Wire,2013-02-16 04:18:00,
2013-02-15 23:24:00,30.3,28.0,29.90,East,84,0.0,0.0,90,0.00,n/a,n/a,-99.99,Henriksen +1-Wire,2013-02-16 04:24:00,
2013-02-15 23:30:00,28.9,26.6,29.90,ENE,74,0.0,0.0,90,0.00,n/a,n/a,-99.99,Henriksen +1-Wire,2013-02-16 04:30:00,
2013-02-15 23:36:00,28.5,26.3,29.89,SW,222,0.0,0.0,91,0.00,n/a,n/a,-99.99,Henriksen +1-Wire,2013-02-16 04:36:00,
2013-02-15 23:42:00,28.5,26.2,29.89,NW,307,0.0,0.0,91,0.00,n/a,n/a,-99.99,Henriksen +1-Wire,2013-02-16 04:42:00,
2013-02-15 23:48:00,28.2,26.0,29.89,WSW,254,0.0,0.0,91,0.00,n/a,n/a,-99.99,Henriksen +1-Wire,2013-02-16 04:48:00,
2013-02-15 23:54:00,28.2,26.1,29.90,NNW,343,0.0,0.0,91,0.00,n/a,n/a,-99.99,Henriksen +1-Wire,2013-02-16 04:54:00,